Leakesville, Mississippi
Current Conditions -  °F | °C
As of 9:56 PM on Friday 19 Dec 2014 (Local Time) from KMOB Reporting Station
Light Rain Light Rain  
Wind Chill: 41°   Ceiling: 600
Heat Index: 46°   Visibility: 10mi
Dew Point: 45°   Wind: 10mph
Humidity: 96%   Direction: 30°NNE
Pressure: 30.13"   Gusts: NA
Location:  31.16°N, 88.56°W
Report Text: KMOB 200356Z 03009KT 10SM -RA OVC006 08/07 A3013 RMK AO2 RAB55 SLP202 P0000 T00780072 $
Loading
Personal Weather Stations






























Interactive Weather Map New forecast layout! Learn more

10-Day Weather Forecast

Advertisements
Track Severe Weather on mobile